Time;durP1;ratioP1;P1;durP2;ratioP2;P2;SDS_P1;SDS_P2;PMS_P1;PMS_P2;Temp;Humidity;BMP_temperature;BMP_pressure;BME280_temperature;BME280_humidity;BME280_pressure;Samples;Min_cycle;Max_cycle;Signal;HPM_P1;HPM_P2
2022/11/03 00:01:47;;;;;;;9.38;3.40;;;;;;;;;;10570105;28;20040;-78
2022/11/03 00:07:00;;;;;;;8.07;3.25;;;;;;;;;;10571526;28;20050;-78
2022/11/03 00:12:07;;;;;;;8.87;3.20;;;;;;;;;;10570752;28;20053;-79
2022/11/03 00:17:09;;;;;;;9.65;3.28;;;;;;;;;;10567440;28;20451;-79
2022/11/03 00:22:12;;;;;;;5.38;2.03;;;;;;;;;;10570211;28;20436;-78
2022/11/03 00:27:16;;;;;;;6.10;2.55;;;;;;;;;;10557583;28;20056;-79
2022/11/03 00:32:19;;;;;;;10.55;3.05;;;;;;;;;;10552570;28;20043;-79
2022/11/03 00:37:21;;;;;;;9.07;3.00;;;;;;;;;;10535463;28;20052;-79
2022/11/03 00:42:25;;;;;;;7.38;3.10;;;;;;;;;;10539318;28;20032;-79
2022/11/03 00:47:28;;;;;;;7.20;2.95;;;;;;;;;;10536563;28;20055;-79
2022/11/03 00:52:31;;;;;;;5.55;2.78;;;;;;;;;;10538909;28;20040;-79
2022/11/03 00:57:35;;;;;;;8.25;2.72;;;;;;;;;;10529108;28;20051;-79
2022/11/03 01:02:38;;;;;;;10.80;3.00;;;;;;;;;;10538236;28;20051;-78
2022/11/03 01:07:41;;;;;;;7.45;2.92;;;;;;;;;;10533157;28;20116;-78
2022/11/03 01:12:45;;;;;;;6.57;2.33;;;;;;;;;;10535377;28;20055;-79
2022/11/03 01:17:47;;;;;;;10.77;3.67;;;;;;;;;;10532605;28;20044;-79
2022/11/03 01:22:50;;;;;;;7.47;2.88;;;;;;;;;;10528364;28;20032;-79
2022/11/03 01:27:54;;;;;;;7.53;2.65;;;;;;;;;;10532487;28;20501;-79
2022/11/03 01:32:57;;;;;;;6.97;2.90;;;;;;;;;;10537465;28;20378;-79
2022/11/03 01:37:59;;;;;;;8.10;3.13;;;;;;;;;;10533444;28;20036;-79
2022/11/03 01:43:16;;;;;;;11.75;3.72;;;;;;;;;;10536883;28;20546;-79
2022/11/03 01:48:19;;;;;;;9.57;3.17;;;;;;;;;;10534301;28;20040;-78
2022/11/03 01:53:22;;;;;;;10.65;3.42;;;;;;;;;;10496643;28;20055;-79
2022/11/03 02:10:34;;;;;;;6.60;3.30;;;;;;;;;;10531180;28;20028;-77
2022/11/03 02:15:37;;;;;;;8.68;2.80;;;;;;;;;;10537754;28;20052;-78
2022/11/03 02:20:41;;;;;;;7.47;3.40;;;;;;;;;;10533186;28;20548;-77
2022/11/03 02:25:46;;;;;;;7.63;2.88;;;;;;;;;;10536812;28;20036;-78
2022/11/03 02:30:52;;;;;;;8.30;3.40;;;;;;;;;;10518119;28;20489;-79
2022/11/03 02:35:59;;;;;;;10.20;4.30;;;;;;;;;;10533729;28;20461;-79
2022/11/03 02:41:05;;;;;;;7.38;3.47;;;;;;;;;;10532160;28;20101;-79
2022/11/03 02:46:08;;;;;;;10.30;3.60;;;;;;;;;;10530693;28;20043;-79
2022/11/03 02:51:11;;;;;;;12.65;4.13;;;;;;;;;;10533425;28;20036;-79
2022/11/03 02:56:18;;;;;;;8.68;3.63;;;;;;;;;;10532630;28;20044;-79
2022/11/03 03:01:24;;;;;;;11.98;3.95;;;;;;;;;;10534468;28;20090;-79
2022/11/03 03:06:28;;;;;;;8.35;3.80;;;;;;;;;;10533675;28;20036;-78
2022/11/03 03:11:37;;;;;;;;;;;;;;;;;;10537637;28;20358;-78
2022/11/03 03:16:49;;;;;;;6.45;3.38;;;;;;;;;;10534357;28;19920;-78
2022/11/03 03:21:54;;;;;;;8.98;4.35;;;;;;;;;;10532825;28;20035;-79
2022/11/03 03:26:58;;;;;;;8.68;4.03;;;;;;;;;;10529315;28;20044;-79
2022/11/03 03:32:06;;;;;;;7.95;3.88;;;;;;;;;;10530214;28;20351;-78
2022/11/03 03:37:10;;;;;;;9.98;3.90;;;;;;;;;;10524797;28;20032;-79
2022/11/03 03:42:14;;;;;;;9.27;3.95;;;;;;;;;;10531676;28;20093;-79
2022/11/03 03:47:21;;;;;;;9.40;3.78;;;;;;;;;;10529408;28;20059;-79
2022/11/03 03:52:24;;;;;;;6.60;3.03;;;;;;;;;;10524895;28;20420;-79
2022/11/03 03:57:27;;;;;;;7.72;3.08;;;;;;;;;;10524814;28;20048;-79
2022/11/03 04:02:31;;;;;;;5.37;2.40;;;;;;;;;;10532657;28;20051;-79
2022/11/03 04:07:50;;;;;;;9.00;3.72;;;;;;;;;;10528404;28;20416;-79
2022/11/03 04:23:43;;;;;;;11.15;3.88;;;;;;;;;;10539706;28;20439;-79
2022/11/03 04:28:46;;;;;;;8.90;4.45;;;;;;;;;;10538816;28;20043;-80
2022/11/03 04:33:50;;;;;;;9.82;3.53;;;;;;;;;;10540417;28;20048;-79
2022/11/03 04:38:53;;;;;;;8.27;3.75;;;;;;;;;;10536210;28;20043;-80
2022/11/03 04:43:57;;;;;;;9.82;4.05;;;;;;;;;;10537856;28;20044;-79
2022/11/03 04:49:01;;;;;;;11.37;4.47;;;;;;;;;;10537666;28;20090;-79
2022/11/03 04:54:07;;;;;;;7.13;3.65;;;;;;;;;;10540003;28;20062;-78
2022/11/03 04:59:11;;;;;;;12.30;4.20;;;;;;;;;;10538285;28;20050;-78
2022/11/03 05:04:13;;;;;;;;;;;;;;;;;;10541315;28;20085;-79
2022/11/03 06:10:23;;;;;;;10.25;4.10;;;;;;;;;;10516477;28;20478;-79
2022/11/03 06:15:31;;;;;;;11.70;5.05;;;;;;;;;;10493773;28;20056;-80
2022/11/03 06:20:34;;;;;;;10.73;4.75;;;;;;;;;;10493449;28;20512;-79
2022/11/03 06:25:42;;;;;;;6.82;2.50;;;;;;;;;;10493846;28;20429;-79
2022/11/03 06:30:45;;;;;;;4.20;2.15;;;;;;;;;;10497876;28;20056;-79
2022/11/03 06:35:49;;;;;;;3.90;1.58;;;;;;;;;;10525363;28;20298;-78
2022/11/03 06:40:53;;;;;;;5.32;2.72;;;;;;;;;;10530646;28;20047;-78
2022/11/03 06:45:57;;;;;;;9.38;4.70;;;;;;;;;;10534535;28;20036;-78
2022/11/03 06:51:00;;;;;;;;;;;;;;;;;;10529320;28;20044;-79
2022/11/03 06:56:10;;;;;;;5.03;1.95;;;;;;;;;;10528652;28;20385;-79
2022/11/03 07:01:20;;;;;;;8.73;3.55;;;;;;;;;;10531970;28;20524;-79
2022/11/03 07:06:28;;;;;;;13.15;5.28;;;;;;;;;;10527986;28;20059;-78
2022/11/03 07:11:46;;;;;;;5.30;2.70;;;;;;;;;;10531098;28;20324;-79
2022/11/03 07:17:00;;;;;;;10.98;4.65;;;;;;;;;;10532188;28;20043;-79
2022/11/03 07:22:24;;;;;;;4.57;2.85;;;;;;;;;;10526912;28;20043;-79
2022/11/03 07:28:03;;;;;;;11.57;5.28;;;;;;;;;;10530726;28;20393;-80
2022/11/03 07:33:16;;;;;;;8.97;4.73;;;;;;;;;;10533013;28;20113;-79
2022/11/03 07:38:25;;;;;;;10.90;4.70;;;;;;;;;;10518615;28;20128;-80
2022/11/03 07:43:41;;;;;;;10.98;4.45;;;;;;;;;;10586367;27;20112;-80
2022/11/03 07:54:32;;;;;;;9.05;5.40;;;;;;;;;;10625445;27;20651;-78
2022/11/03 08:00:08;;;;;;;9.05;5.22;;;;;;;;;;10609143;27;20050;-79
2022/11/03 08:05:46;;;;;;;9.67;5.10;;;;;;;;;;10596972;27;20046;-79
2022/11/03 08:11:05;;;;;;;15.65;6.10;;;;;;;;;;10596883;27;20042;-79
2022/11/03 08:16:26;;;;;;;12.90;6.10;;;;;;;;;;10607171;27;20118;-79
2022/11/03 08:21:48;;;;;;;9.02;5.60;;;;;;;;;;10617546;27;20362;-79
2022/11/03 08:27:08;;;;;;;8.27;5.57;;;;;;;;;;10600277;27;20055;-79
2022/11/03 08:32:21;;;;;;;7.45;5.60;;;;;;;;;;10611843;27;20047;-79
2022/11/03 08:37:40;;;;;;;8.23;6.07;;;;;;;;;;10619400;27;20471;-80
2022/11/03 08:42:49;;;;;;;9.25;5.25;;;;;;;;;;10606381;27;20066;-80
2022/11/03 08:47:54;;;;;;;7.88;5.28;;;;;;;;;;10609560;27;20055;-80
2022/11/03 08:53:07;;;;;;;10.38;5.53;;;;;;;;;;10603100;27;20579;-80
2022/11/03 08:58:20;;;;;;;10.55;5.88;;;;;;;;;;10606836;27;20038;-80
2022/11/03 09:03:41;;;;;;;6.95;4.38;;;;;;;;;;10631179;27;20066;-80
2022/11/03 09:08:59;;;;;;;9.43;4.38;;;;;;;;;;10627632;27;20035;-80
2022/11/03 09:14:28;;;;;;;8.40;5.00;;;;;;;;;;10614927;27;20039;-80
2022/11/03 09:19:37;;;;;;;6.13;4.45;;;;;;;;;;10615670;27;20039;-79
2022/11/03 09:24:46;;;;;;;7.85;4.68;;;;;;;;;;10622114;27;20053;-81
2022/11/03 09:29:56;;;;;;;7.38;4.38;;;;;;;;;;10616107;27;20039;-80
2022/11/03 09:40:57;;;;;;;7.68;4.88;;;;;;;;;;10599127;27;20043;-80
2022/11/03 09:51:38;;;;;;;9.25;5.53;;;;;;;;;;10613849;27;20262;-79
2022/11/03 10:02:15;;;;;;;8.73;4.75;;;;;;;;;;10619723;27;20059;-80
2022/11/03 10:07:28;;;;;;;10.35;4.93;;;;;;;;;;10600844;27;20123;-80
2022/11/03 10:12:36;;;;;;;7.38;5.35;;;;;;;;;;10616739;27;20398;-80
2022/11/03 10:17:43;;;;;;;9.18;5.30;;;;;;;;;;10598764;27;20097;-80
2022/11/03 10:22:57;;;;;;;16.75;5.85;;;;;;;;;;10619611;27;20046;-80
2022/11/03 10:28:23;;;;;;;10.68;5.45;;;;;;;;;;10596489;27;20400;-79
2022/11/03 10:33:37;;;;;;;8.95;4.90;;;;;;;;;;10590322;27;20373;-79
2022/11/03 10:38:48;;;;;;;12.82;5.20;;;;;;;;;;10613508;27;20049;-80
2022/11/03 10:44:35;;;;;;;9.52;5.10;;;;;;;;;;10610799;27;20043;-79
2022/11/03 10:49:54;;;;;;;5.63;4.68;;;;;;;;;;10614452;27;20043;-79
2022/11/03 10:55:11;;;;;;;12.40;5.40;;;;;;;;;;10618257;27;20051;-80
2022/11/03 11:00:26;;;;;;;7.72;4.72;;;;;;;;;;10595451;27;20043;-79
2022/11/03 11:05:46;;;;;;;9.00;5.38;;;;;;;;;;10614386;27;20074;-79
2022/11/03 11:10:55;;;;;;;7.47;4.60;;;;;;;;;;10595990;27;20123;-80
2022/11/03 11:16:07;;;;;;;9.27;5.35;;;;;;;;;;10618683;27;20039;-80
2022/11/03 11:21:20;;;;;;;;;;;;;;;;;;10610228;27;20484;-80
2022/11/03 11:31:58;;;;;;;7.20;4.82;;;;;;;;;;10615099;28;20107;-79
2022/11/03 11:37:22;;;;;;;8.23;4.97;;;;;;;;;;10596632;28;20464;-79
2022/11/03 11:42:27;;;;;;;9.60;5.70;;;;;;;;;;10595375;28;20051;-79
2022/11/03 11:47:47;;;;;;;8.00;5.10;;;;;;;;;;10618116;28;20386;-79
2022/11/03 11:52:55;;;;;;;6.70;4.78;;;;;;;;;;10620201;28;20057;-79
2022/11/03 11:58:01;;;;;;;5.57;4.35;;;;;;;;;;10619034;28;20464;-79
2022/11/03 12:03:16;;;;;;;9.77;4.75;;;;;;;;;;10604152;28;20520;-79
2022/11/03 12:08:28;;;;;;;8.10;5.15;;;;;;;;;;10602733;28;20154;-78
2022/11/03 12:13:56;;;;;;;7.72;4.45;;;;;;;;;;10620102;28;20491;-78
2022/11/03 12:19:24;;;;;;;6.20;5.13;;;;;;;;;;10594889;28;20414;-79
2022/11/03 12:24:40;;;;;;;8.55;4.70;;;;;;;;;;10611038;28;20400;-78
2022/11/03 12:29:51;;;;;;;7.57;5.20;;;;;;;;;;10600207;27;20070;-78
2022/11/03 12:35:01;;;;;;;9.18;4.72;;;;;;;;;;10622887;27;20626;-78
2022/11/03 12:45:34;;;;;;;9.45;4.65;;;;;;;;;;10564420;28;20032;-79
2022/11/03 12:50:41;;;;;;;7.35;4.80;;;;;;;;;;10616339;27;20031;-78
2022/11/03 12:55:53;;;;;;;10.07;5.35;;;;;;;;;;10624776;27;20038;-78
2022/11/03 13:01:04;;;;;;;10.80;5.23;;;;;;;;;;10604723;27;20359;-78
2022/11/03 13:06:18;;;;;;;6.93;4.10;;;;;;;;;;10601162;27;20243;-79
2022/11/03 13:16:55;;;;;;;11.35;5.32;;;;;;;;;;10603510;27;20047;-79
2022/11/03 13:22:03;;;;;;;8.15;4.88;;;;;;;;;;10622287;27;20411;-79
2022/11/03 13:27:17;;;;;;;7.68;4.85;;;;;;;;;;10603467;27;20400;-79
2022/11/03 13:32:32;;;;;;;8.07;5.18;;;;;;;;;;10595997;27;20043;-78
2022/11/03 13:37:43;;;;;;;7.97;4.55;;;;;;;;;;10595300;27;20039;-79
2022/11/03 13:42:58;;;;;;;10.95;5.75;;;;;;;;;;10617253;27;20138;-79
2022/11/03 13:48:06;;;;;;;12.32;5.07;;;;;;;;;;10599647;27;20605;-79
2022/11/03 13:53:40;;;;;;;9.00;5.40;;;;;;;;;;10602068;27;20077;-78
2022/11/03 13:59:15;;;;;;;10.23;5.43;;;;;;;;;;10599005;27;20051;-78
2022/11/03 14:04:32;;;;;;;10.63;5.20;;;;;;;;;;10599850;27;20484;-78
2022/11/03 14:09:48;;;;;;;7.80;4.60;;;;;;;;;;10598734;27;20043;-78
2022/11/03 14:14:53;;;;;;;10.88;5.30;;;;;;;;;;10619676;27;20124;-78
2022/11/03 14:20:01;;;;;;;14.90;6.65;;;;;;;;;;10600194;27;20042;-79
2022/11/03 14:25:15;;;;;;;10.73;5.15;;;;;;;;;;10612730;27;20096;-78
2022/11/03 14:30:34;;;;;;;;;;;;;;;;;;10598368;27;20135;-77
2022/11/03 14:35:42;;;;;;;11.25;6.00;;;;;;;;;;10615513;27;19954;-78
2022/11/03 14:46:13;;;;;;;13.77;6.05;;;;;;;;;;10602201;27;20043;-79
2022/11/03 14:51:28;;;;;;;13.98;6.60;;;;;;;;;;10603122;27;20411;-79
2022/11/03 14:56:57;;;;;;;14.75;7.47;;;;;;;;;;10620846;27;20039;-79
2022/11/03 15:02:07;;;;;;;12.90;6.70;;;;;;;;;;10627159;27;20070;-79
2022/11/03 15:07:29;;;;;;;13.45;7.05;;;;;;;;;;10614077;27;20491;-78
2022/11/03 15:12:37;;;;;;;13.05;7.30;;;;;;;;;;10601079;27;20047;-78
2022/11/03 15:17:41;;;;;;;14.27;7.50;;;;;;;;;;10614109;27;20050;-78
2022/11/03 15:22:45;;;;;;;;;;;;;;;;;;10624891;27;20051;-78
2022/11/03 15:28:15;;;;;;;15.63;6.90;;;;;;;;;;10617661;28;20277;-77
2022/11/03 15:33:26;;;;;;;13.90;7.07;;;;;;;;;;10617952;28;20049;-78
2022/11/03 15:38:36;;;;;;;15.45;7.53;;;;;;;;;;10608223;28;20454;-78
2022/11/03 15:43:54;;;;;;;15.25;7.72;;;;;;;;;;10599340;28;20043;-78
2022/11/03 15:48:59;;;;;;;14.63;7.35;;;;;;;;;;10615752;28;20039;-79
2022/11/03 15:54:07;;;;;;;18.75;7.88;;;;;;;;;;10599080;28;20104;-78
2022/11/03 15:59:26;;;;;;;18.97;7.90;;;;;;;;;;10609215;28;20092;-78
2022/11/03 16:04:36;;;;;;;16.15;8.07;;;;;;;;;;10599782;27;20472;-78
2022/11/03 16:09:42;;;;;;;21.50;8.77;;;;;;;;;;10598009;27;20035;-79
2022/11/03 16:14:49;;;;;;;19.38;8.10;;;;;;;;;;10606098;27;20050;-78
2022/11/03 16:20:08;;;;;;;18.80;8.07;;;;;;;;;;10604952;27;20041;-79
2022/11/03 16:25:15;;;;;;;17.55;8.25;;;;;;;;;;10604783;27;20330;-78
2022/11/03 16:30:30;;;;;;;21.67;8.50;;;;;;;;;;10601558;27;20047;-78
2022/11/03 16:35:39;;;;;;;19.23;9.18;;;;;;;;;;10617145;27;20035;-78
2022/11/03 16:40:51;;;;;;;18.95;8.43;;;;;;;;;;10619912;27;20053;-78
2022/11/03 16:51:27;;;;;;;21.45;9.00;;;;;;;;;;10596510;27;20043;-79
2022/11/03 16:56:42;;;;;;;19.17;8.50;;;;;;;;;;10604674;27;20039;-79
2022/11/03 17:07:27;;;;;;;17.98;8.40;;;;;;;;;;10568914;27;20465;-79
2022/11/03 17:12:30;;;;;;;;;;;;;;;;;;10566579;28;20105;-78
2022/11/03 17:17:33;;;;;;;25.50;9.75;;;;;;;;;;10568166;28;19919;-80
2022/11/03 17:22:37;;;;;;;21.63;9.27;;;;;;;;;;10568410;28;20048;-78
2022/11/03 17:27:40;;;;;;;;;;;;;;;;;;10568827;28;20043;-78
2022/11/03 17:32:43;;;;;;;22.73;11.07;;;;;;;;;;10569988;28;19919;-78
2022/11/03 17:37:47;;;;;;;23.17;10.20;;;;;;;;;;10567439;28;20039;-79
2022/11/03 17:42:51;;;;;;;21.27;8.70;;;;;;;;;;10570048;28;20032;-78
2022/11/03 17:47:54;;;;;;;15.43;6.57;;;;;;;;;;10565672;28;20079;-79
2022/11/03 17:52:58;;;;;;;12.97;5.93;;;;;;;;;;10577510;28;20040;-80
2022/11/03 17:58:00;;;;;;;;;;;;;;;;;;10579950;28;20040;-79
2022/11/03 18:03:03;;;;;;;14.65;6.00;;;;;;;;;;10576462;28;19931;-78
2022/11/03 18:08:10;;;;;;;18.83;7.15;;;;;;;;;;10567755;28;20497;-79
2022/11/03 18:13:23;;;;;;;19.30;7.78;;;;;;;;;;10575872;28;20051;-79
2022/11/03 18:18:32;;;;;;;13.10;5.45;;;;;;;;;;10545035;28;20040;-78
2022/11/03 18:23:34;;;;;;;;;;;;;;;;;;10542285;28;20087;-79
2022/11/03 18:28:38;;;;;;;20.38;8.57;;;;;;;;;;10538455;28;19927;-78
2022/11/03 18:33:41;;;;;;;;;;;;;;;;;;10537956;28;20040;-79
2022/11/03 18:38:47;;;;;;;;;;;;;;;;;;10532684;28;19931;-79
2022/11/03 18:43:51;;;;;;;14.80;5.33;;;;;;;;;;10538500;28;19965;-80
2022/11/03 18:48:54;;;;;;;22.77;7.82;;;;;;;;;;10531692;28;20036;-79
2022/11/03 18:53:56;;;;;;;17.35;7.80;;;;;;;;;;10537511;28;20594;-79
2022/11/03 18:59:00;;;;;;;19.75;8.25;;;;;;;;;;10537984;28;20066;-78
2022/11/03 19:04:09;;;;;;;15.32;6.38;;;;;;;;;;10537071;28;20504;-79
2022/11/03 19:09:13;;;;;;;18.63;8.23;;;;;;;;;;10534620;28;20246;-79
2022/11/03 19:14:20;;;;;;;17.45;7.68;;;;;;;;;;10536898;28;20508;-78
2022/11/03 19:19:27;;;;;;;12.23;5.85;;;;;;;;;;10535967;28;20122;-77
2022/11/03 19:24:40;;;;;;;13.65;6.55;;;;;;;;;;10538498;28;20051;-79
2022/11/03 19:29:45;;;;;;;17.07;7.40;;;;;;;;;;10534758;28;20448;-79
2022/11/03 19:34:51;;;;;;;13.43;6.43;;;;;;;;;;10537570;28;20282;-78
2022/11/03 19:39:54;;;;;;;10.85;5.20;;;;;;;;;;10532382;28;20101;-79
2022/11/03 19:44:59;;;;;;;10.63;4.38;;;;;;;;;;10537156;28;20039;-78
2022/11/03 19:50:04;;;;;;;8.95;3.35;;;;;;;;;;10535848;28;20040;-79
2022/11/03 19:55:06;;;;;;;;;;;;;;;;;;10536426;28;20028;-80
2022/11/03 20:00:15;;;;;;;13.20;6.15;;;;;;;;;;10533925;28;20054;-80
2022/11/03 20:05:17;;;;;;;8.98;4.78;;;;;;;;;;10531158;28;20032;-80
2022/11/03 20:10:20;;;;;;;10.05;4.93;;;;;;;;;;10522941;28;20038;-79
2022/11/03 20:15:24;;;;;;;17.52;7.07;;;;;;;;;;10533507;28;20551;-79
2022/11/03 20:20:26;;;;;;;;;;;;;;;;;;10532752;28;20127;-79
2022/11/03 20:25:32;;;;;;;9.25;4.10;;;;;;;;;;10534034;28;20347;-79
2022/11/03 20:30:36;;;;;;;19.05;8.10;;;;;;;;;;10534417;28;20493;-78
2022/11/03 20:35:39;;;;;;;17.42;7.90;;;;;;;;;;10534681;28;20036;-78
2022/11/03 20:40:42;;;;;;;21.17;8.65;;;;;;;;;;10532814;28;20418;-79
2022/11/03 20:45:46;;;;;;;11.35;5.82;;;;;;;;;;10536454;28;20481;-79
2022/11/03 20:50:49;;;;;;;20.77;11.88;;;;;;;;;;10538274;28;20044;-79
2022/11/03 20:55:52;;;;;;;11.23;4.57;;;;;;;;;;10536564;28;20386;-79
2022/11/03 21:00:56;;;;;;;12.40;4.75;;;;;;;;;;10533134;28;20055;-78
2022/11/03 21:05:59;;;;;;;11.48;5.63;;;;;;;;;;10529976;28;20075;-80
2022/11/03 21:11:22;;;;;;;12.15;5.15;;;;;;;;;;10530328;28;20386;-79
2022/11/03 21:21:46;;;;;;;16.90;6.90;;;;;;;;;;10537050;28;20047;-79
2022/11/03 21:26:49;;;;;;;10.50;4.85;;;;;;;;;;10527146;28;20039;-79
2022/11/03 21:31:53;;;;;;;18.38;6.88;;;;;;;;;;10534548;28;20421;-80
2022/11/03 21:36:55;;;;;;;8.82;4.00;;;;;;;;;;10529700;28;20447;-78
2022/11/03 21:47:20;;;;;;;17.27;6.43;;;;;;;;;;10528130;28;20121;-78
2022/11/03 21:52:30;;;;;;;16.58;7.13;;;;;;;;;;10529529;28;20062;-78
2022/11/03 21:57:33;;;;;;;9.32;5.63;;;;;;;;;;10533576;28;20047;-78
2022/11/03 22:02:39;;;;;;;15.52;6.80;;;;;;;;;;10539101;28;20378;-78
2022/11/03 22:07:41;;;;;;;;;;;;;;;;;;10540004;28;20032;-78
2022/11/03 22:12:44;;;;;;;18.77;7.80;;;;;;;;;;10536498;28;19928;-79
2022/11/03 22:17:48;;;;;;;15.75;6.75;;;;;;;;;;10537417;28;20058;-78
2022/11/03 22:28:11;;;;;;;22.35;8.45;;;;;;;;;;10535172;28;20040;-79
2022/11/03 22:33:17;;;;;;;16.60;7.55;;;;;;;;;;10539453;28;20047;-79
2022/11/03 22:45:49;;;;;;;18.10;7.60;;;;;;;;;;10530890;28;20050;-79
2022/11/03 22:49:08;;;;;;;18.83;8.40;;;;;;;;;;10531764;28;20098;-78
2022/11/03 22:54:11;;;;;;;14.98;7.00;;;;;;;;;;10538419;28;20047;-79
2022/11/03 22:59:13;;;;;;;15.60;7.65;;;;;;;;;;10537833;28;20047;-78
2022/11/03 23:04:17;;;;;;;14.65;7.80;;;;;;;;;;10532254;28;20094;-78
2022/11/03 23:09:20;;;;;;;17.58;8.02;;;;;;;;;;10525791;28;20516;-77
2022/11/03 23:15:30;;;;;;;18.50;8.05;;;;;;;;;;10541658;28;20035;-78
2022/11/03 23:25:06;;;;;;;11.55;5.82;;;;;;;;;;10537531;28;20066;-79
2022/11/03 23:30:09;;;;;;;10.15;4.50;;;;;;;;;;10538420;28;20110;-79
2022/11/03 23:35:23;;;;;;;9.23;5.07;;;;;;;;;;10540675;28;20121;-79
2022/11/03 23:40:26;;;;;;;8.68;3.20;;;;;;;;;;10534913;28;20055;-79
2022/11/03 23:50:50;;;;;;;7.55;3.70;;;;;;;;;;10533944;28;20040;-78
